sensor_id;sensor_type;location;lat;lon;timestamp;pressure;altitude;pressure_sealevel;temperature;humidity
71194;BME280;58903;47.210;8.618;2023-04-21T00:02:02;93686.16;;;25.89;41.50
71194;BME280;58903;47.210;8.618;2023-04-21T00:04:37;93696.84;;;25.93;42.08
71194;BME280;58903;47.210;8.618;2023-04-21T00:07:11;93681.41;;;25.90;41.92
71194;BME280;58903;47.210;8.618;2023-04-21T00:09:57;93671.09;;;25.90;41.61
71194;BME280;58903;47.210;8.618;2023-04-21T00:12:38;93673.13;;;25.90;42.42
71194;BME280;58903;47.210;8.618;2023-04-21T00:15:25;93667.63;;;25.90;41.21
71194;BME280;58903;47.210;8.618;2023-04-21T00:18:09;93655.31;;;25.91;41.83
71194;BME280;58903;47.210;8.618;2023-04-21T00:21:08;93645.59;;;25.90;41.79
71194;BME280;58903;47.210;8.618;2023-04-21T00:23:44;93641.13;;;25.87;42.05
71194;BME280;58903;47.210;8.618;2023-04-21T00:26:26;93641.88;;;25.87;41.34
71194;BME280;58903;47.210;8.618;2023-04-21T00:28:54;93640.59;;;25.88;41.96
71194;BME280;58903;47.210;8.618;2023-04-21T00:31:31;93657.31;;;25.90;42.02
71194;BME280;58903;47.210;8.618;2023-04-21T00:34:16;93660.06;;;25.90;42.02
71194;BME280;58903;47.210;8.618;2023-04-21T00:36:41;93662.63;;;25.88;41.29
71194;BME280;58903;47.210;8.618;2023-04-21T00:39:17;93656.59;;;25.90;41.67
71194;BME280;58903;47.210;8.618;2023-04-21T00:42:00;93655.84;;;25.89;42.05
71194;BME280;58903;47.210;8.618;2023-04-21T00:44:38;93652.34;;;25.89;41.83
71194;BME280;58903;47.210;8.618;2023-04-21T00:47:29;93650.34;;;25.89;41.52
71194;BME280;58903;47.210;8.618;2023-04-21T00:49:58;93644.84;;;25.89;42.15
71194;BME280;58903;47.210;8.618;2023-04-21T00:52:43;93639.31;;;25.89;42.05
71194;BME280;58903;47.210;8.618;2023-04-21T00:55:11;93641.88;;;25.87;41.35
71194;BME280;58903;47.210;8.618;2023-04-21T00:57:41;93655.84;;;25.89;41.48
71194;BME280;58903;47.210;8.618;2023-04-21T01:00:08;93660.63;;;25.89;41.86
71194;BME280;58903;47.210;8.618;2023-04-21T01:02:42;93664.66;;;25.88;42.14
71194;BME280;58903;47.210;8.618;2023-04-21T01:05:38;93663.91;;;25.87;41.57
71194;BME280;58903;47.210;8.618;2023-04-21T01:08:05;93661.16;;;25.87;41.90
71194;BME280;58903;47.210;8.618;2023-04-21T01:10:31;93654.69;;;25.85;41.79
71194;BME280;58903;47.210;8.618;2023-04-21T01:13:18;93660.63;;;25.89;41.83
71194;BME280;58903;47.210;8.618;2023-04-21T01:15:57;93661.16;;;25.87;41.67
71194;BME280;58903;47.210;8.618;2023-04-21T01:18:33;93656.19;;;25.86;41.71
71194;BME280;58903;47.210;8.618;2023-04-21T01:21:09;93651.41;;;25.86;41.24
71194;BME280;58903;47.210;8.618;2023-04-21T01:23:38;93640.91;;;25.85;41.81
71194;BME280;58903;47.210;8.618;2023-04-21T01:26:16;93651.41;;;25.86;42.21
71194;BME280;58903;47.210;8.618;2023-04-21T01:28:59;93652.91;;;25.87;41.96
71194;BME280;58903;47.210;8.618;2023-04-21T01:31:26;93658.41;;;25.87;41.90
71194;BME280;58903;47.210;8.618;2023-04-21T01:33:55;93663.91;;;25.87;41.81
71194;BME280;58903;47.210;8.618;2023-04-21T01:36:23;93665.16;;;25.86;41.72
71194;BME280;58903;47.210;8.618;2023-04-21T01:38:49;93661.16;;;25.87;42.22
71194;BME280;58903;47.210;8.618;2023-04-21T01:41:31;93659.88;;;25.88;42.05
71194;BME280;58903;47.210;8.618;2023-04-21T01:44:08;93651.41;;;25.86;41.41
71194;BME280;58903;47.210;8.618;2023-04-21T01:46:42;93646.63;;;25.87;41.18
71194;BME280;58903;47.210;8.618;2023-04-21T01:49:16;93643.34;;;25.88;41.24
71194;BME280;58903;47.210;8.618;2023-04-21T01:51:49;93634.88;;;25.86;41.80
71194;BME280;58903;47.210;8.618;2023-04-21T01:54:16;93652.16;;;25.87;42.01
71194;BME280;58903;47.210;8.618;2023-04-21T01:56:57;93651.59;;;25.88;41.53
71194;BME280;58903;47.210;8.618;2023-04-21T01:59:26;93650.69;;;25.86;41.47
71194;BME280;58903;47.210;8.618;2023-04-21T02:01:52;93646.97;;;25.83;41.84
71194;BME280;58903;47.210;8.618;2023-04-21T02:04:45;93645.47;;;25.82;41.51
71194;BME280;58903;47.210;8.618;2023-04-21T02:07:12;93641.97;;;25.82;41.60
71194;BME280;58903;47.210;8.618;2023-04-21T02:09:43;93655.03;;;25.81;41.92
71194;BME280;58903;47.210;8.618;2023-04-21T02:12:24;93671.53;;;25.81;41.83
71194;BME280;58903;47.210;8.618;2023-04-21T02:15:09;93671.53;;;25.81;41.68
71194;BME280;58903;47.210;8.618;2023-04-21T02:17:48;93662.84;;;25.77;42.16
71194;BME280;58903;47.210;8.618;2023-04-21T02:20:24;93664.53;;;25.80;42.10
71194;BME280;58903;47.210;8.618;2023-04-21T02:22:52;93659.03;;;25.80;41.89
71194;BME280;58903;47.210;8.618;2023-04-21T02:25:36;93658.28;;;25.80;41.88
71194;BME280;58903;47.210;8.618;2023-04-21T02:28:15;93654.59;;;25.77;41.81
71194;BME280;58903;47.210;8.618;2023-04-21T02:30:45;93645.78;;;25.79;42.01
71194;BME280;58903;47.210;8.618;2023-04-21T02:33:30;93627.47;;;25.81;42.06
71194;BME280;58903;47.210;8.618;2023-04-21T02:36:06;93619.00;;;25.79;41.94
71194;BME280;58903;47.210;8.618;2023-04-21T02:38:36;93630.44;;;25.83;41.60
71194;BME280;58903;47.210;8.618;2023-04-21T02:41:13;93631.16;;;25.84;41.66
71194;BME280;58903;47.210;8.618;2023-04-21T02:43:52;93626.72;;;25.81;41.88
71194;BME280;58903;47.210;8.618;2023-04-21T02:46:20;93633.91;;;25.84;41.83
71194;BME280;58903;47.210;8.618;2023-04-21T02:49:12;93633.69;;;25.82;41.57
71194;BME280;58903;47.210;8.618;2023-04-21T02:52:00;93630.22;;;25.81;41.69
71194;BME280;58903;47.210;8.618;2023-04-21T02:54:26;93621.22;;;25.81;42.06
71194;BME280;58903;47.210;8.618;2023-04-21T02:56:54;93623.22;;;25.80;41.31
71194;BME280;58903;47.210;8.618;2023-04-21T02:59:20;93625.03;;;25.78;41.68
71194;BME280;58903;47.210;8.618;2023-04-21T03:01:46;93638.28;;;25.79;41.93
71194;BME280;58903;47.210;8.618;2023-04-21T03:04:13;93650.75;;;25.80;41.90
71194;BME280;58903;47.210;8.618;2023-04-21T03:06:56;93646.00;;;25.81;41.37
71194;BME280;58903;47.210;8.618;2023-04-21T03:09:50;93638.50;;;25.81;41.36
71194;BME280;58903;47.210;8.618;2023-04-21T03:12:46;93635.72;;;25.81;41.19
71194;BME280;58903;47.210;8.618;2023-04-21T03:15:26;93626.72;;;25.81;42.13
71194;BME280;58903;47.210;8.618;2023-04-21T03:17:53;93625.97;;;25.80;42.18
71194;BME280;58903;47.210;8.618;2023-04-21T03:20:28;93610.72;;;25.79;42.16
71194;BME280;58903;47.210;8.618;2023-04-21T03:22:56;93596.97;;;25.79;42.04
71194;BME280;58903;47.210;8.618;2023-04-21T03:25:22;93603.94;;;25.80;41.29
71194;BME280;58903;47.210;8.618;2023-04-21T03:27:49;93614.22;;;25.80;42.01
71194;BME280;58903;47.210;8.618;2023-04-21T03:30:15;93617.16;;;25.82;41.22
71194;BME280;58903;47.210;8.618;2023-04-21T03:32:41;93619.72;;;25.80;42.30
71194;BME280;58903;47.210;8.618;2023-04-21T03:35:07;93613.50;;;25.79;41.21
71194;BME280;58903;47.210;8.618;2023-04-21T03:37:33;93605.94;;;25.80;42.48
71194;BME280;58903;47.210;8.618;2023-04-21T03:40:10;93604.47;;;25.79;41.86
71194;BME280;58903;47.210;8.618;2023-04-21T03:42:39;93605.00;;;25.77;41.87
71194;BME280;58903;47.210;8.618;2023-04-21T03:45:25;93608.19;;;25.81;41.60
71194;BME280;58903;47.210;8.618;2023-04-21T03:48:00;93616.97;;;25.80;42.24
71194;BME280;58903;47.210;8.618;2023-04-21T03:50:33;93623.22;;;25.80;42.33
71194;BME280;58903;47.210;8.618;2023-04-21T03:53:02;93623.22;;;25.80;41.29
71194;BME280;58903;47.210;8.618;2023-04-21T03:55:28;93624.72;;;25.81;41.34
71194;BME280;58903;47.210;8.618;2023-04-21T03:58:07;93627.97;;;25.80;42.04
71194;BME280;58903;47.210;8.618;2023-04-21T04:00:43;93618.03;;;25.77;42.35
71194;BME280;58903;47.210;8.618;2023-04-21T04:03:12;93627.97;;;25.80;42.26
71194;BME280;58903;47.210;8.618;2023-04-21T04:05:53;93622.47;;;25.80;41.95
71194;BME280;58903;47.210;8.618;2023-04-21T04:08:21;93611.44;;;25.80;41.37
71194;BME280;58903;47.210;8.618;2023-04-21T04:10:55;93613.50;;;25.79;41.60
71194;BME280;58903;47.210;8.618;2023-04-21T04:13:23;93608.69;;;25.80;41.85
71194;BME280;58903;47.210;8.618;2023-04-21T04:16:17;93610.94;;;25.81;41.41
71194;BME280;58903;47.210;8.618;2023-04-21T04:19:02;93613.50;;;25.79;41.99
71194;BME280;58903;47.210;8.618;2023-04-21T04:21:39;93609.44;;;25.80;41.27
71194;BME280;58903;47.210;8.618;2023-04-21T04:24:07;93619.94;;;25.82;41.86
71194;BME280;58903;47.210;8.618;2023-04-21T04:26:38;93616.97;;;25.80;41.53
71194;BME280;58903;47.210;8.618;2023-04-21T04:29:06;93615.50;;;25.79;41.35
71194;BME280;58903;47.210;8.618;2023-04-21T04:31:37;93624.50;;;25.79;42.02
71194;BME280;58903;47.210;8.618;2023-04-21T04:34:03;93623.75;;;25.79;42.26
71194;BME280;58903;47.210;8.618;2023-04-21T04:36:39;93618.78;;;25.77;42.09
71194;BME280;58903;47.210;8.618;2023-04-21T04:39:20;93614.53;;;25.76;42.17
71194;BME280;58903;47.210;8.618;2023-04-21T04:41:47;93608.50;;;25.78;41.86
71194;BME280;58903;47.210;8.618;2023-04-21T04:44:24;93608.50;;;25.78;41.88
71194;BME280;58903;47.210;8.618;2023-04-21T04:47:00;93616.97;;;25.80;41.83
71194;BME280;58903;47.210;8.618;2023-04-21T04:49:26;93618.47;;;25.81;41.58
71194;BME280;58903;47.210;8.618;2023-04-21T04:52:30;93628.72;;;25.80;42.25
71194;BME280;58903;47.210;8.618;2023-04-21T04:54:58;93631.47;;;25.80;42.03
71194;BME280;58903;47.210;8.618;2023-04-21T04:57:39;93625.97;;;25.80;42.00
71194;BME280;58903;47.210;8.618;2023-04-21T05:00:20;93627.25;;;25.79;41.67
71194;BME280;58903;47.210;8.618;2023-04-21T05:03:27;93640.72;;;25.83;42.40
71194;BME280;58903;47.210;8.618;2023-04-21T05:05:53;93636.44;;;25.82;42.09
71194;BME280;58903;47.210;8.618;2023-04-21T05:08:33;93646.97;;;25.83;42.44
71194;BME280;58903;47.210;8.618;2023-04-21T05:11:17;93643.47;;;25.83;41.68
71194;BME280;58903;47.210;8.618;2023-04-21T05:13:55;93641.75;;;25.80;41.74
71194;BME280;58903;47.210;8.618;2023-04-21T05:16:39;93651.72;;;25.83;42.35
71194;BME280;58903;47.210;8.618;2023-04-21T05:19:07;93659.78;;;25.81;41.67
71194;BME280;58903;47.210;8.618;2023-04-21T05:21:43;93661.78;;;25.80;42.42
71194;BME280;58903;47.210;8.618;2023-04-21T05:24:18;93667.09;;;25.78;42.04
71194;BME280;58903;47.210;8.618;2023-04-21T05:26:48;93673.34;;;25.79;42.41
71194;BME280;58903;47.210;8.618;2023-04-21T05:29:50;93667.84;;;25.79;41.76
71194;BME280;58903;47.210;8.618;2023-04-21T05:32:18;93663.78;;;25.80;41.91
71194;BME280;58903;47.210;8.618;2023-04-21T05:34:45;93676.72;;;25.85;42.61
71194;BME280;58903;47.210;8.618;2023-04-21T05:37:24;93674.94;;;25.87;41.48
71194;BME280;58903;47.210;8.618;2023-04-21T05:39:59;93682.78;;;25.96;42.19
71194;BME280;58903;47.210;8.618;2023-04-21T05:42:55;93678.09;;;26.04;41.35
71194;BME280;58903;47.210;8.618;2023-04-21T05:45:29;93667.63;;;26.03;40.28
71194;BME280;58903;47.210;8.618;2023-04-21T05:47:55;93667.41;;;26.01;39.99
71194;BME280;58903;47.210;8.618;2023-04-21T05:50:34;93664.22;;;25.97;40.53
71194;BME280;58903;47.210;8.618;2023-04-21T05:53:01;93666.97;;;25.97;40.48
71194;BME280;58903;47.210;8.618;2023-04-21T05:55:39;93669.63;;;26.02;40.90
71194;BME280;58903;47.210;8.618;2023-04-21T05:58:05;93667.41;;;26.01;40.58
71194;BME280;58903;47.210;8.618;2023-04-21T06:00:41;93668.47;;;25.98;40.14
71194;BME280;58903;47.210;8.618;2023-04-21T06:03:09;93667.19;;;25.99;40.55
71194;BME280;58903;47.210;8.618;2023-04-21T06:05:54;93665.72;;;25.98;40.80
71194;BME280;58903;47.210;8.618;2023-04-21T06:08:32;93675.78;;;25.95;41.00
71194;BME280;58903;47.210;8.618;2023-04-21T06:10:59;93669.84;;;25.91;40.56
71194;BME280;58903;47.210;8.618;2023-04-21T06:13:34;93678.09;;;25.91;39.97
71194;BME280;58903;47.210;8.618;2023-04-21T06:16:13;93669.84;;;25.91;41.04
71194;BME280;58903;47.210;8.618;2023-04-21T06:18:39;93665.59;;;25.90;40.95
71194;BME280;58903;47.210;8.618;2023-04-21T06:21:05;93666.66;;;25.87;41.00
71194;BME280;58903;47.210;8.618;2023-04-21T06:23:32;93661.69;;;25.86;41.34
71194;BME280;58903;47.210;8.618;2023-04-21T06:26:02;93657.22;;;25.83;40.53
71194;BME280;58903;47.210;8.618;2023-04-21T06:28:34;93654.47;;;25.83;41.29
71194;BME280;58903;47.210;8.618;2023-04-21T06:31:04;93657.66;;;25.87;41.65
71194;BME280;58903;47.210;8.618;2023-04-21T06:33:30;93648.13;;;25.88;41.08
71194;BME280;58903;47.210;8.618;2023-04-21T06:35:56;93654.81;;;25.92;40.60
71194;BME280;58903;47.210;8.618;2023-04-21T06:38:22;93646.75;;;25.94;41.21
71194;BME280;58903;47.210;8.618;2023-04-21T06:40:49;93652.56;;;26.04;40.59
71194;BME280;58903;47.210;8.618;2023-04-21T06:43:19;93655.66;;;26.00;40.75
71194;BME280;58903;47.210;8.618;2023-04-21T06:45:45;93657.44;;;25.98;40.92
71194;BME280;58903;47.210;8.618;2023-04-21T06:48:12;93658.28;;;25.93;40.81
71194;BME280;58903;47.210;8.618;2023-04-21T06:50:40;93660.53;;;25.94;41.52
71194;BME280;58903;47.210;8.618;2023-04-21T06:53:09;93665.81;;;25.92;41.14
71194;BME280;58903;47.210;8.618;2023-04-21T06:55:38;93655.84;;;25.89;41.10
71194;BME280;58903;47.210;8.618;2023-04-21T06:58:07;93654.91;;;25.87;41.19
71194;BME280;58903;47.210;8.618;2023-04-21T07:00:36;93659.88;;;25.88;40.94
71194;BME280;58903;47.210;8.618;2023-04-21T07:03:06;93655.09;;;25.89;41.93
71194;BME280;58903;47.210;8.618;2023-04-21T07:05:36;93649.38;;;25.87;41.80
71194;BME280;58903;47.210;8.618;2023-04-21T07:08:02;93648.63;;;25.86;40.99
71194;BME280;58903;47.210;8.618;2023-04-21T07:10:31;93646.63;;;25.87;41.69
71194;BME280;58903;47.210;8.618;2023-04-21T07:12:59;93644.63;;;25.87;41.42
71194;BME280;58903;47.210;8.618;2023-04-21T07:15:34;93648.13;;;25.88;41.60
71194;BME280;58903;47.210;8.618;2023-04-21T07:18:08;93652.91;;;25.87;41.80
71194;BME280;58903;47.210;8.618;2023-04-21T07:20:51;93648.84;;;25.88;42.06
71194;BME280;58903;47.210;8.618;2023-04-21T07:23:27;93647.59;;;25.89;42.27
71194;BME280;58903;47.210;8.618;2023-04-21T07:26:20;93645.59;;;25.90;41.54
71194;BME280;58903;47.210;8.618;2023-04-21T07:29:13;93639.53;;;25.91;41.98
71194;BME280;58903;47.210;8.618;2023-04-21T07:31:43;93639.00;;;25.93;41.31
71194;BME280;58903;47.210;8.618;2023-04-21T07:34:11;93637.19;;;25.95;41.84
71194;BME280;58903;47.210;8.618;2023-04-21T07:36:49;93646.63;;;26.00;41.12
71194;BME280;58903;47.210;8.618;2023-04-21T07:39:26;93640.38;;;25.99;41.72
71194;BME280;58903;47.210;8.618;2023-04-21T07:42:04;93643.53;;;26.03;41.43
71194;BME280;58903;47.210;8.618;2023-04-21T07:44:33;93648.00;;;26.06;41.44
71194;BME280;58903;47.210;8.618;2023-04-21T07:47:00;93651.75;;;26.09;41.40
71194;BME280;58903;47.210;8.618;2023-04-21T07:49:37;93648.44;;;26.10;41.12
71194;BME280;58903;47.210;8.618;2023-04-21T07:52:14;93648.66;;;26.12;40.78
71194;BME280;58903;47.210;8.618;2023-04-21T07:54:42;93645.38;;;26.14;41.04
71194;BME280;58903;47.210;8.618;2023-04-21T07:57:18;93653.09;;;26.15;40.47
71194;BME280;58903;47.210;8.618;2023-04-21T07:59:44;93649.06;;;26.16;40.39
71194;BME280;58903;47.210;8.618;2023-04-21T08:02:11;93653.31;;;26.17;40.57
71194;BME280;58903;47.210;8.618;2023-04-21T08:04:37;93654.38;;;26.14;40.81
71194;BME280;58903;47.210;8.618;2023-04-21T08:07:05;93645.06;;;26.17;40.57
71194;BME280;58903;47.210;8.618;2023-04-21T08:09:31;93640.59;;;26.14;40.75
71194;BME280;58903;47.210;8.618;2023-04-21T08:12:03;93639.13;;;26.13;40.90
71194;BME280;58903;47.210;8.618;2023-04-21T08:15:02;93635.28;;;26.16;40.54
71194;BME280;58903;47.210;8.618;2023-04-21T08:17:52;93636.78;;;26.17;41.20
71194;BME280;58903;47.210;8.618;2023-04-21T08:20:21;93631.06;;;26.15;40.73
71194;BME280;58903;47.210;8.618;2023-04-21T08:22:50;93633.81;;;26.15;40.87
71194;BME280;58903;47.210;8.618;2023-04-21T08:25:29;93636.78;;;26.17;41.45
71194;BME280;58903;47.210;8.618;2023-04-21T08:27:56;93648.00;;;26.20;41.12
71194;BME280;58903;47.210;8.618;2023-04-21T08:30:22;93637.53;;;26.18;41.13
71194;BME280;58903;47.210;8.618;2023-04-21T08:32:48;93626.81;;;26.14;41.25
71194;BME280;58903;47.210;8.618;2023-04-21T08:35:14;93645.78;;;26.18;40.55
71194;BME280;58903;47.210;8.618;2023-04-21T08:37:45;93642.09;;;26.15;41.07
71194;BME280;58903;47.210;8.618;2023-04-21T08:40:11;93629.56;;;26.14;40.60
71194;BME280;58903;47.210;8.618;2023-04-21T08:42:39;93635.28;;;26.16;41.22
71194;BME280;58903;47.210;8.618;2023-04-21T08:45:05;93644.84;;;26.15;41.39
71194;BME280;58903;47.210;8.618;2023-04-21T08:47:37;93643.34;;;26.14;41.00
71194;BME280;58903;47.210;8.618;2023-04-21T08:50:10;93636.38;;;26.13;40.81
71194;BME280;58903;47.210;8.618;2023-04-21T08:52:39;93644.63;;;26.13;41.52
71194;BME280;58903;47.210;8.618;2023-04-21T08:55:06;93635.63;;;26.13;40.82
71194;BME280;58903;47.210;8.618;2023-04-21T08:57:34;93639.53;;;26.17;41.28
71194;BME280;58903;47.210;8.618;2023-04-21T09:00:05;93636.25;;;26.19;41.42
71194;BME280;58903;47.210;8.618;2023-04-21T09:02:52;93648.13;;;26.14;41.53
71194;BME280;58903;47.210;8.618;2023-04-21T09:05:25;93641.13;;;26.13;41.48
71194;BME280;58903;47.210;8.618;2023-04-21T09:10:55;93634.16;;;26.12;40.98
71194;BME280;58903;47.210;8.618;2023-04-21T09:13:50;93639.53;;;26.17;40.71
71194;BME280;58903;47.210;8.618;2023-04-21T09:16:32;93648.44;;;26.24;40.66
71194;BME280;58903;47.210;8.618;2023-04-21T09:19:17;93651.19;;;26.24;41.18
71194;BME280;58903;47.210;8.618;2023-04-21T09:22:16;93653.53;;;26.20;41.02
71194;BME280;58903;47.210;8.618;2023-04-21T09:24:48;93639.00;;;26.19;40.86
71194;BME280;58903;47.210;8.618;2023-04-21T09:27:36;93632.75;;;26.19;40.89
71194;BME280;58903;47.210;8.618;2023-04-21T09:30:26;93627.66;;;26.23;40.61
71194;BME280;58903;47.210;8.618;2023-04-21T09:33:32;93626.59;;;26.26;40.91
71194;BME280;58903;47.210;8.618;2023-04-21T09:36:04;93626.59;;;26.26;41.60
71194;BME280;58903;47.210;8.618;2023-04-21T09:38:31;93624.03;;;26.28;40.76
71194;BME280;58903;47.210;8.618;2023-04-21T09:41:04;93621.81;;;26.26;40.84
71194;BME280;58903;47.210;8.618;2023-04-21T09:43:32;93628.28;;;26.29;41.04
71194;BME280;58903;47.210;8.618;2023-04-21T09:46:02;93635.06;;;26.28;41.20
71194;BME280;58903;47.210;8.618;2023-04-21T09:48:34;93634.53;;;26.29;40.83
71194;BME280;58903;47.210;8.618;2023-04-21T09:51:01;93638.03;;;26.30;40.79
71194;BME280;58903;47.210;8.618;2023-04-21T09:53:33;93638.03;;;26.30;41.39
71194;BME280;58903;47.210;8.618;2023-04-21T09:56:03;93637.72;;;26.33;41.55
71194;BME280;58903;47.210;8.618;2023-04-21T09:58:45;93643.63;;;26.37;41.34
71194;BME280;58903;47.210;8.618;2023-04-21T10:01:14;93645.84;;;26.39;41.08
71194;BME280;58903;47.210;8.618;2023-04-21T10:04:10;93648.81;;;26.41;41.00
71194;BME280;58903;47.210;8.618;2023-04-21T10:06:41;93642.34;;;26.38;41.12
71194;BME280;58903;47.210;8.618;2023-04-21T10:09:08;93646.59;;;26.39;40.77
71194;BME280;58903;47.210;8.618;2023-04-21T10:11:37;93629.50;;;26.41;41.22
71194;BME280;58903;47.210;8.618;2023-04-21T10:14:15;93633.56;;;26.40;40.97
71194;BME280;58903;47.210;8.618;2023-04-21T10:17:19;93633.56;;;26.40;41.35
71194;BME280;58903;47.210;8.618;2023-04-21T10:19:57;93621.25;;;26.41;41.42
71194;BME280;58903;47.210;8.618;2023-04-21T10:22:55;93621.44;;;26.43;41.14
71194;BME280;58903;47.210;8.618;2023-04-21T10:25:31;93627.16;;;26.45;41.37
71194;BME280;58903;47.210;8.618;2023-04-21T10:27:59;93621.13;;;26.46;41.75
71194;BME280;58903;47.210;8.618;2023-04-21T10:30:46;93614.88;;;26.46;41.08
71194;BME280;58903;47.210;8.618;2023-04-21T10:33:28;93622.59;;;26.47;41.74
71194;BME280;58903;47.210;8.618;2023-04-21T10:36:23;93614.13;;;26.45;40.69
71194;BME280;58903;47.210;8.618;2023-04-21T10:38:54;93610.41;;;26.43;41.54
71194;BME280;58903;47.210;8.618;2023-04-21T10:41:30;93600.34;;;26.45;40.94
71194;BME280;58903;47.210;8.618;2023-04-21T10:44:16;93612.13;;;26.46;41.73
71194;BME280;58903;47.210;8.618;2023-04-21T10:46:57;93606.59;;;26.46;41.28
71194;BME280;58903;47.210;8.618;2023-04-21T10:49:27;93606.81;;;26.48;41.40
71194;BME280;58903;47.210;8.618;2023-04-21T10:52:18;93589.91;;;26.51;41.10
71194;BME280;58903;47.210;8.618;2023-04-21T10:57:17;93603.94;;;26.53;41.11
71194;BME280;58903;47.210;8.618;2023-04-21T10:59:44;93601.38;;;26.55;40.89
71194;BME280;58903;47.210;8.618;2023-04-21T11:02:17;93609.09;;;26.57;41.50
71194;BME280;58903;47.210;8.618;2023-04-21T11:04:50;93606.91;;;26.55;40.91
71194;BME280;58903;47.210;8.618;2023-04-21T11:07:27;93607.81;;;26.58;41.35
71194;BME280;58903;47.210;8.618;2023-04-21T11:10:07;93600.28;;;26.58;41.73
71194;BME280;58903;47.210;8.618;2023-04-21T11:12:48;93591.50;;;26.60;41.09
71194;BME280;58903;47.210;8.618;2023-04-21T11:15:14;93585.97;;;26.60;40.70
71194;BME280;58903;47.210;8.618;2023-04-21T11:17:44;93587.44;;;26.61;41.16
71194;BME280;58903;47.210;8.618;2023-04-21T11:20:27;93597.00;;;26.60;41.00
71194;BME280;58903;47.210;8.618;2023-04-21T11:23:06;93603.47;;;26.62;40.86
71194;BME280;58903;47.210;8.618;2023-04-21T11:28:46;93601.25;;;26.61;41.42
71194;BME280;58903;47.210;8.618;2023-04-21T11:31:17;93609.50;;;26.61;41.32
71194;BME280;58903;47.210;8.618;2023-04-21T11:34:11;93597.94;;;26.62;41.20
71194;BME280;58903;47.210;8.618;2023-04-21T11:37:08;93589.16;;;26.64;40.91
71194;BME280;58903;47.210;8.618;2023-04-21T11:39:39;93600.91;;;26.64;41.13
71194;BME280;58903;47.210;8.618;2023-04-21T11:42:06;93606.75;;;26.61;41.13
71194;BME280;58903;47.210;8.618;2023-04-21T11:44:44;93613.78;;;26.62;41.61
71194;BME280;58903;47.210;8.618;2023-04-21T11:47:30;93618.00;;;26.63;41.61
71194;BME280;58903;47.210;8.618;2023-04-21T11:50:00;93620.56;;;26.61;40.94
71194;BME280;58903;47.210;8.618;2023-04-21T11:52:36;93624.06;;;26.61;41.10
71194;BME280;58903;47.210;8.618;2023-04-21T11:55:17;93638.38;;;26.60;41.25
71194;BME280;58903;47.210;8.618;2023-04-21T11:57:44;93651.63;;;26.61;41.42
71194;BME280;58903;47.210;8.618;2023-04-21T12:00:19;93664.69;;;26.61;41.62
71194;BME280;58903;47.210;8.618;2023-04-21T12:02:56;93665.97;;;26.60;41.09
71194;BME280;58903;47.210;8.618;2023-04-21T12:05:23;93670.94;;;26.61;41.75
71194;BME280;58903;47.210;8.618;2023-04-21T12:08:23;93670.41;;;26.63;41.34
71194;BME280;58903;47.210;8.618;2023-04-21T12:11:01;93669.66;;;26.62;41.34
71194;BME280;58903;47.210;8.618;2023-04-21T12:13:41;93676.25;;;26.59;41.58
71194;BME280;58903;47.210;8.618;2023-04-21T12:16:08;93695.03;;;26.61;41.55
71194;BME280;58903;47.210;8.618;2023-04-21T12:18:41;93689.50;;;26.61;41.17
71194;BME280;58903;47.210;8.618;2023-04-21T12:21:13;93692.25;;;26.61;41.31
71194;BME280;58903;47.210;8.618;2023-04-21T12:23:40;93696.50;;;26.62;41.61
71194;BME280;58903;47.210;8.618;2023-04-21T12:26:10;93707.34;;;26.60;41.15
71194;BME280;58903;47.210;8.618;2023-04-21T12:28:38;93699.59;;;26.58;41.09
71194;BME280;58903;47.210;8.618;2023-04-21T12:31:14;93699.28;;;26.62;41.08
71194;BME280;58903;47.210;8.618;2023-04-21T12:34:15;93695.78;;;26.61;40.96
71194;BME280;58903;47.210;8.618;2023-04-21T12:36:41;93677.94;;;26.62;40.79
71194;BME280;58903;47.210;8.618;2023-04-21T12:39:39;93666.19;;;26.62;41.35
71194;BME280;58903;47.210;8.618;2023-04-21T12:42:06;93667.78;;;26.57;41.27
71194;BME280;58903;47.210;8.618;2023-04-21T12:44:32;93672.97;;;26.61;41.48
71194;BME280;58903;47.210;8.618;2023-04-21T12:47:03;93686.94;;;26.63;40.85
71194;BME280;58903;47.210;8.618;2023-04-21T12:49:29;93674.13;;;26.65;41.07
71194;BME280;58903;47.210;8.618;2023-04-21T12:52:26;93676.53;;;26.69;41.42
71194;BME280;58903;47.210;8.618;2023-04-21T12:55:29;93662.75;;;26.69;40.81
71194;BME280;58903;47.210;8.618;2023-04-21T12:58:34;93663.47;;;26.69;41.10
71194;BME280;58903;47.210;8.618;2023-04-21T13:01:00;93649.69;;;26.69;40.95
71194;BME280;58903;47.210;8.618;2023-04-21T13:03:42;93655.75;;;26.68;41.35
71194;BME280;58903;47.210;8.618;2023-04-21T13:06:35;93670.50;;;26.70;40.97
71194;BME280;58903;47.210;8.618;2023-04-21T13:09:16;93664.22;;;26.70;40.87
71194;BME280;58903;47.210;8.618;2023-04-21T13:11:43;93658.16;;;26.71;40.57
71194;BME280;58903;47.210;8.618;2023-04-21T13:14:19;93657.69;;;26.73;40.60
71194;BME280;58903;47.210;8.618;2023-04-21T13:16:53;93661.16;;;26.73;41.08
71194;BME280;58903;47.210;8.618;2023-04-21T13:19:41;93675.91;;;26.76;40.38
71194;BME280;58903;47.210;8.618;2023-04-21T13:22:36;93680.88;;;26.77;41.00
71194;BME280;58903;47.210;8.618;2023-04-21T13:28:30;93682.91;;;26.77;40.86
71194;BME280;58903;47.210;8.618;2023-04-21T13:31:11;93681.63;;;26.78;40.41
71194;BME280;58903;47.210;8.618;2023-04-21T13:33:54;93678.34;;;26.79;40.87
71194;BME280;58903;47.210;8.618;2023-04-21T13:36:48;93674.84;;;26.79;40.45
71194;BME280;58903;47.210;8.618;2023-04-21T13:39:17;93675.06;;;26.81;40.57
71194;BME280;58903;47.210;8.618;2023-04-21T13:41:53;93679.81;;;26.80;40.88
71194;BME280;58903;47.210;8.618;2023-04-21T13:44:55;93662.53;;;26.80;40.83
71194;BME280;58903;47.210;8.618;2023-04-21T13:47:41;93651.69;;;26.82;40.88
71194;BME280;58903;47.210;8.618;2023-04-21T13:50:21;93651.16;;;26.83;40.48
71194;BME280;58903;47.210;8.618;2023-04-21T13:52:48;93645.09;;;26.85;40.02
71194;BME280;58903;47.210;8.618;2023-04-21T13:55:29;93632.81;;;26.86;40.28
71194;BME280;58903;47.210;8.618;2023-04-21T13:58:04;93637.78;;;26.87;39.99